createdAt,value
2023-01-10T00:00:34.780Z,5.19
2023-01-10T00:03:08.223Z,5.20
2023-01-10T00:05:35.633Z,5.20
2023-01-10T00:08:03.557Z,5.19
2023-01-10T00:10:31.508Z,5.20
2023-01-10T00:13:18.012Z,5.20
2023-01-10T00:15:44.923Z,5.21
2023-01-10T00:18:11.954Z,5.21
2023-01-10T00:20:38.698Z,5.23
2023-01-10T00:23:05.580Z,5.22
2023-01-10T00:25:34.342Z,5.23
2023-01-10T00:28:19.474Z,5.23
2023-01-10T00:31:01.217Z,5.25
2023-01-10T00:33:30.100Z,5.26
2023-01-10T00:35:56.743Z,5.26
2023-01-10T00:38:23.743Z,5.29
2023-01-10T00:40:50.504Z,5.31
2023-01-10T00:43:35.859Z,5.32
2023-01-10T00:46:05.159Z,5.33
2023-01-10T00:48:31.901Z,5.35
2023-01-10T00:50:58.592Z,5.35
2023-01-10T00:53:25.437Z,5.35
2023-01-10T00:55:53.795Z,5.37
2023-01-10T00:58:20.650Z,5.37
2023-01-10T01:00:51.779Z,5.39
2023-01-10T01:03:20.240Z,5.44
2023-01-10T01:05:48.916Z,5.44
2023-01-10T01:08:16.819Z,5.42
2023-01-10T01:10:43.685Z,5.44
2023-01-10T01:13:14.535Z,5.45
2023-01-10T01:15:41.371Z,5.47
2023-01-10T01:18:08.829Z,5.47
2023-01-10T01:20:35.576Z,5.47
2023-01-10T01:23:02.259Z,5.47
2023-01-10T01:25:28.993Z,5.47
2023-01-10T01:27:55.746Z,5.47
2023-01-10T01:30:22.587Z,5.48
2023-01-10T01:32:49.396Z,5.48
2023-01-10T01:35:17.046Z,5.48
2023-01-10T01:37:44.241Z,5.48
2023-01-10T01:40:19.312Z,5.48
2023-01-10T01:42:46.971Z,5.48
2023-01-10T01:45:22.787Z,5.48
2023-01-10T01:47:58.210Z,5.49
2023-01-10T01:50:29.590Z,5.54
2023-01-10T01:53:00.773Z,5.60
2023-01-10T01:55:33.193Z,5.62
2023-01-10T01:58:04.090Z,5.67
2023-01-10T02:00:30.824Z,5.69
2023-01-10T02:03:02.993Z,5.73
2023-01-10T02:05:33.126Z,5.75
2023-01-10T02:08:02.421Z,5.73
2023-01-10T02:10:52.819Z,5.73
2023-01-10T02:13:22.860Z,5.71
2023-01-10T02:15:50.098Z,5.69
2023-01-10T02:18:17.962Z,5.68
2023-01-10T02:21:00.797Z,5.69
2023-01-10T02:23:33.589Z,5.70
2023-01-10T02:26:02.861Z,5.75
2023-01-10T02:29:15.454Z,5.76
2023-01-10T02:31:57.155Z,5.75
2023-01-10T02:35:00.385Z,5.74
2023-01-10T02:37:34.022Z,5.75
2023-01-10T02:40:06.154Z,5.77
2023-01-10T02:43:01.017Z,5.79
2023-01-10T02:45:47.789Z,5.80
2023-01-10T02:48:16.984Z,5.81
2023-01-10T02:50:44.349Z,5.84
2023-01-10T02:53:21.770Z,5.83
2023-01-10T02:55:51.650Z,5.83
2023-01-10T02:58:33.496Z,5.83
2023-01-10T03:01:58.836Z,5.82
2023-01-10T03:04:37.496Z,5.80
2023-01-10T03:07:31.241Z,5.78
2023-01-10T03:10:06.758Z,5.76
2023-01-10T03:12:46.286Z,5.72
2023-01-10T03:15:18.220Z,5.68
2023-01-10T03:17:50.707Z,5.66
2023-01-10T03:20:20.954Z,5.62
2023-01-10T03:22:48.492Z,5.61
2023-01-10T03:25:17.533Z,5.58
2023-01-10T03:28:09.549Z,5.57
2023-01-10T03:31:00.923Z,5.54
2023-01-10T03:33:30.831Z,5.53
2023-01-10T03:36:27.411Z,5.52
2023-01-10T03:38:55.246Z,5.50
2023-01-10T03:41:45.253Z,5.48
2023-01-10T03:44:45.220Z,5.47
2023-01-10T03:47:23.758Z,5.45
2023-01-10T03:49:55.779Z,5.45
2023-01-10T03:52:24.036Z,5.44
2023-01-10T03:54:51.178Z,5.44
2023-01-10T03:57:24.910Z,5.44
2023-01-10T03:59:59.701Z,5.45
2023-01-10T04:02:31.702Z,5.45
2023-01-10T04:04:59.314Z,5.46
2023-01-10T04:07:27.001Z,5.45
2023-01-10T04:09:54.299Z,5.45
2023-01-10T04:12:21.250Z,5.45
2023-01-10T04:14:48.007Z,5.43
2023-01-10T04:17:16.531Z,5.44
2023-01-10T04:19:44.139Z,5.45
2023-01-10T04:22:11.934Z,5.46
2023-01-10T04:24:38.871Z,5.46
2023-01-10T04:27:05.779Z,5.49
2023-01-10T04:29:32.464Z,5.50
2023-01-10T04:31:59.139Z,5.50
2023-01-10T04:34:25.866Z,5.53
2023-01-10T04:36:52.659Z,5.53
2023-01-10T04:39:19.315Z,5.54
2023-01-10T04:41:45.972Z,5.56
2023-01-10T04:44:12.999Z,5.58
2023-01-10T04:46:39.637Z,5.59
2023-01-10T04:49:07.395Z,5.60
2023-01-10T04:51:34.136Z,5.62
2023-01-10T04:54:00.856Z,5.63
2023-01-10T04:56:27.619Z,5.68
2023-01-10T04:58:54.554Z,5.70
2023-01-10T05:01:24.768Z,5.71
2023-01-10T05:03:53.897Z,5.75
2023-01-10T05:06:21.990Z,5.78
2023-01-10T05:08:48.734Z,5.81
2023-01-10T05:11:15.647Z,5.84
2023-01-10T05:13:42.569Z,5.87
2023-01-10T05:16:09.272Z,5.89
2023-01-10T05:18:35.900Z,5.92
2023-01-10T05:21:06.079Z,5.95
2023-01-10T05:23:33.212Z,5.98
2023-01-10T05:26:18.976Z,6.00
2023-01-10T05:28:46.085Z,6.04
2023-01-10T05:31:16.603Z,6.10
2023-01-10T05:33:51.276Z,6.14
2023-01-10T05:36:19.209Z,6.17
2023-01-10T05:38:46.506Z,6.22
2023-01-10T05:41:13.357Z,6.27
2023-01-10T05:43:40.083Z,6.31
2023-01-10T05:46:07.080Z,6.33
2023-01-10T05:48:33.894Z,6.34
2023-01-10T05:51:00.760Z,6.38
2023-01-10T05:53:27.518Z,6.42
2023-01-10T05:56:00.114Z,6.44
2023-01-10T05:58:27.530Z,6.47
2023-01-10T06:00:55.588Z,6.49
2023-01-10T06:03:23.064Z,6.53
2023-01-10T06:05:49.782Z,6.56
2023-01-10T06:08:16.868Z,6.58
2023-01-10T06:10:43.787Z,6.62
2023-01-10T06:13:12.173Z,6.64
2023-01-10T06:15:39.502Z,6.64
2023-01-10T06:18:07.018Z,6.66
2023-01-10T06:20:33.791Z,6.67
2023-01-10T06:23:04.497Z,6.70
2023-01-10T06:25:37.132Z,6.72
2023-01-10T06:28:04.143Z,6.74
2023-01-10T06:30:30.904Z,6.76
2023-01-10T06:33:04.812Z,6.78
2023-01-10T06:35:33.424Z,6.81
2023-01-10T06:38:00.189Z,6.83
2023-01-10T06:40:28.120Z,6.86
2023-01-10T06:42:54.847Z,6.87
2023-01-10T06:45:21.657Z,6.89
2023-01-10T06:47:48.357Z,6.93
2023-01-10T06:50:15.075Z,6.93
2023-01-10T06:52:42.101Z,6.96
2023-01-10T06:55:09.047Z,6.98
2023-01-10T06:57:35.757Z,6.99
2023-01-10T07:00:07.359Z,7.02
2023-01-10T07:02:34.131Z,7.06
2023-01-10T07:05:00.824Z,7.08
2023-01-10T07:07:27.455Z,7.07
2023-01-10T07:09:54.102Z,7.07
2023-01-10T07:12:20.765Z,7.07
2023-01-10T07:14:47.411Z,7.09
2023-01-10T07:17:14.074Z,7.13
2023-01-10T07:19:40.704Z,7.34
2023-01-10T07:22:07.348Z,7.61
2023-01-10T07:24:34.422Z,7.85
2023-01-10T07:27:01.104Z,8.09
2023-01-10T07:29:27.842Z,8.29
2023-01-10T07:31:54.520Z,8.51
2023-01-10T07:34:21.158Z,8.65
2023-01-10T07:36:47.881Z,8.77
2023-01-10T07:39:14.594Z,8.89
2023-01-10T07:41:41.281Z,8.97
2023-01-10T07:44:08.105Z,9.05
2023-01-10T07:46:34.812Z,9.09
2023-01-10T07:49:01.442Z,9.15
2023-01-10T07:51:28.181Z,9.21
2023-01-10T07:53:54.849Z,9.26
2023-01-10T07:56:21.602Z,9.29
2023-01-10T07:58:48.266Z,9.32
2023-01-10T08:01:15.028Z,9.36
2023-01-10T08:03:41.851Z,9.40
2023-01-10T08:06:14.797Z,9.43
2023-01-10T08:08:43.439Z,9.51
2023-01-10T08:11:10.121Z,9.55
2023-01-10T08:13:36.893Z,9.62
2023-01-10T08:16:07.659Z,9.70
2023-01-10T08:18:34.985Z,9.71
2023-01-10T08:21:01.633Z,9.77
2023-01-10T08:23:28.389Z,9.78
2023-01-10T08:25:58.688Z,9.80
2023-01-10T08:28:25.356Z,9.80
2023-01-10T08:30:55.688Z,9.83
2023-01-10T08:33:24.055Z,9.88
2023-01-10T08:35:51.548Z,9.89
2023-01-10T08:38:18.273Z,9.92
2023-01-10T08:40:44.971Z,9.96
2023-01-10T08:43:12.997Z,10.00
2023-01-10T08:45:39.907Z,10.03
2023-01-10T08:48:09.368Z,10.08
2023-01-10T08:50:36.411Z,10.13
2023-01-10T08:53:03.107Z,10.15
2023-01-10T08:55:31.357Z,10.17
2023-01-10T08:58:02.591Z,10.19
2023-01-10T09:00:30.033Z,10.22
2023-01-10T09:02:56.822Z,10.25
2023-01-10T09:05:27.995Z,10.28
2023-01-10T09:08:00.427Z,10.29
2023-01-10T09:10:28.410Z,10.30
2023-01-10T09:12:55.061Z,10.35
2023-01-10T09:15:27.305Z,10.35
2023-01-10T09:17:58.826Z,10.36
2023-01-10T09:20:26.694Z,10.37
2023-01-10T09:22:53.611Z,10.38
2023-01-10T09:25:21.083Z,10.42
2023-01-10T09:27:47.741Z,10.44
2023-01-10T09:30:14.745Z,10.46
2023-01-10T09:32:41.471Z,10.50
2023-01-10T09:35:08.388Z,10.53
2023-01-10T09:37:35.119Z,10.57
2023-01-10T09:40:01.953Z,10.61
2023-01-10T09:42:40.890Z,10.60
2023-01-10T09:45:48.611Z,10.61
2023-01-10T09:48:53.821Z,10.63
2023-01-10T09:51:30.411Z,10.63
2023-01-10T09:54:10.702Z,10.66
2023-01-10T09:56:40.499Z,10.69
2023-01-10T09:59:15.254Z,10.70
2023-01-10T10:01:42.116Z,10.73
2023-01-10T10:04:32.334Z,10.76
2023-01-10T10:06:59.411Z,10.78
2023-01-10T10:09:30.142Z,10.80
2023-01-10T10:12:27.105Z,10.82
2023-01-10T10:14:59.402Z,10.84
2023-01-10T10:17:36.183Z,10.86
2023-01-10T10:20:21.719Z,10.88
2023-01-10T10:23:13.234Z,10.95
2023-01-10T10:26:07.028Z,10.96
2023-01-10T10:28:55.505Z,10.95
2023-01-10T10:31:53.381Z,11.01
2023-01-10T10:34:38.510Z,11.01
2023-01-10T10:37:36.355Z,11.02
2023-01-10T10:40:25.944Z,11.04
2023-01-10T10:42:56.217Z,11.08
2023-01-10T10:45:47.558Z,11.10
2023-01-10T10:48:23.864Z,11.13
2023-01-10T10:50:58.433Z,11.15
2023-01-10T10:53:25.452Z,11.20
2023-01-10T10:55:53.485Z,11.25
2023-01-10T10:58:20.619Z,11.29
2023-01-10T11:00:48.095Z,11.31
2023-01-10T11:03:21.053Z,11.34
2023-01-10T11:05:48.376Z,11.38
2023-01-10T11:08:17.514Z,11.40
2023-01-10T11:10:53.522Z,11.41
2023-01-10T11:13:26.201Z,11.42
2023-01-10T11:15:55.323Z,11.43
2023-01-10T11:18:26.389Z,11.46
2023-01-10T11:20:58.888Z,11.49
2023-01-10T11:23:40.663Z,11.54
2023-01-10T11:26:11.084Z,11.54
2023-01-10T11:28:38.575Z,11.56
2023-01-10T11:31:05.477Z,11.56
2023-01-10T11:33:39.981Z,11.56
2023-01-10T11:36:09.626Z,11.58
2023-01-10T11:38:36.761Z,11.63
2023-01-10T11:41:18.678Z,11.63
2023-01-10T11:43:47.041Z,11.62
2023-01-10T11:46:17.446Z,11.67
2023-01-10T11:49:05.620Z,11.69
2023-01-10T11:51:38.204Z,11.72
2023-01-10T11:54:11.628Z,11.72
2023-01-10T11:56:43.621Z,11.72
2023-01-10T11:59:15.240Z,11.72
2023-01-10T12:01:59.123Z,11.74
2023-01-10T12:04:29.658Z,11.73
2023-01-10T12:07:04.453Z,11.74
2023-01-10T12:09:44.752Z,11.74
2023-01-10T12:12:29.347Z,11.77
2023-01-10T12:14:58.966Z,11.78
2023-01-10T12:17:31.535Z,11.81
2023-01-10T12:20:03.589Z,11.84
2023-01-10T12:22:35.331Z,11.89
2023-01-10T12:25:24.124Z,11.91
2023-01-10T12:27:51.320Z,11.94
2023-01-10T12:30:28.054Z,11.95
2023-01-10T12:32:58.433Z,11.98
2023-01-10T12:35:39.529Z,12.02
2023-01-10T12:38:47.322Z,12.07
2023-01-10T12:41:42.941Z,12.11
2023-01-10T12:44:19.331Z,12.16
2023-01-10T12:47:10.814Z,12.18
2023-01-10T12:49:49.135Z,12.25
2023-01-10T12:52:32.810Z,12.27
2023-01-10T12:55:00.360Z,12.30
2023-01-10T12:57:39.756Z,12.33
2023-01-10T13:00:15.866Z,12.34
2023-01-10T13:02:46.182Z,12.36
2023-01-10T13:05:21.694Z,12.38
2023-01-10T13:07:51.213Z,12.41
2023-01-10T13:10:22.509Z,12.41
2023-01-10T13:13:19.074Z,12.43
2023-01-10T13:15:55.491Z,12.43
2023-01-10T13:18:28.673Z,12.43
2023-01-10T13:21:05.355Z,12.44
2023-01-10T13:23:34.208Z,12.45
2023-01-10T13:26:09.017Z,12.45
2023-01-10T13:28:41.652Z,12.46
2023-01-10T13:31:24.039Z,12.49
2023-01-10T13:33:55.157Z,12.50
2023-01-10T13:36:26.737Z,12.51
2023-01-10T13:38:59.171Z,12.50
2023-01-10T13:42:16.011Z,12.52
2023-01-10T13:45:03.937Z,12.54
2023-01-10T13:47:40.184Z,12.56
2023-01-10T13:50:36.437Z,12.56
2023-01-10T13:53:03.885Z,12.55
2023-01-10T13:55:36.697Z,12.57
2023-01-10T13:58:14.876Z,12.55
2023-01-10T14:01:05.820Z,12.54
2023-01-10T14:03:40.382Z,12.53
2023-01-10T14:06:19.141Z,12.53
2023-01-10T14:09:11.762Z,12.52
2023-01-10T14:11:44.436Z,12.51
2023-01-10T14:14:34.760Z,12.50
2023-01-10T14:17:21.814Z,12.50
2023-01-10T14:19:59.227Z,12.52
2023-01-10T14:22:38.354Z,12.56
2023-01-10T14:25:20.953Z,12.56
2023-01-10T14:27:50.984Z,12.56
2023-01-10T14:30:20.829Z,12.58
2023-01-10T14:32:51.456Z,12.56
2023-01-10T14:35:22.175Z,12.55
2023-01-10T14:37:55.592Z,12.54
2023-01-10T14:40:40.970Z,12.53
2023-01-10T14:43:20.216Z,12.52
2023-01-10T14:46:08.789Z,12.51
2023-01-10T14:48:41.524Z,12.48
2023-01-10T14:51:22.418Z,12.47
2023-01-10T14:54:13.261Z,12.43
2023-01-10T14:56:42.872Z,12.39
2023-01-10T14:59:34.387Z,12.36
2023-01-10T15:02:04.276Z,12.31
2023-01-10T15:04:33.878Z,12.29
2023-01-10T15:07:09.754Z,12.27
2023-01-10T15:09:36.506Z,12.27
2023-01-10T15:12:07.301Z,12.24
2023-01-10T15:14:36.525Z,12.22
2023-01-10T15:17:06.402Z,12.20
2023-01-10T15:19:36.208Z,12.20
2023-01-10T15:22:04.734Z,12.19
2023-01-10T15:24:36.881Z,12.18
2023-01-10T15:27:05.334Z,12.17
2023-01-10T15:29:33.653Z,12.16
2023-01-10T15:32:11.709Z,12.12
2023-01-10T15:34:39.674Z,12.11
2023-01-10T15:37:08.367Z,12.10
2023-01-10T15:39:39.062Z,12.01
2023-01-10T15:42:11.674Z,11.86
2023-01-10T15:44:46.051Z,11.77
2023-01-10T15:47:40.542Z,11.66
2023-01-10T15:50:45.563Z,11.54
2023-01-10T15:53:12.276Z,11.36
2023-01-10T15:55:54.784Z,11.20
2023-01-10T15:58:35.962Z,11.01
2023-01-10T16:01:06.761Z,10.81
2023-01-10T16:03:40.082Z,10.66
2023-01-10T16:06:12.503Z,10.52
2023-01-10T16:08:39.428Z,10.40
2023-01-10T16:11:39.533Z,10.29
2023-01-10T16:14:06.178Z,10.20
2023-01-10T16:16:33.257Z,10.14
2023-01-10T16:19:02.718Z,10.08
2023-01-10T16:21:35.228Z,10.00
2023-01-10T16:24:02.698Z,9.95
2023-01-10T16:26:30.127Z,9.89
2023-01-10T16:28:56.752Z,9.83
2023-01-10T16:31:23.532Z,9.79
2023-01-10T16:33:50.280Z,9.74
2023-01-10T16:36:20.917Z,9.67
2023-01-10T16:38:48.198Z,9.63
2023-01-10T16:41:33.726Z,9.57
2023-01-10T16:44:00.812Z,9.54
2023-01-10T16:46:28.113Z,9.52
2023-01-10T16:48:55.090Z,9.50
2023-01-10T16:51:25.073Z,9.50
2023-01-10T16:53:52.223Z,9.49
2023-01-10T16:56:22.021Z,9.46
2023-01-10T16:58:49.687Z,9.44
2023-01-10T17:01:20.055Z,9.42
2023-01-10T17:03:47.516Z,9.41
2023-01-10T17:06:15.740Z,9.41
2023-01-10T17:08:43.813Z,9.40
2023-01-10T17:11:21.722Z,9.37
2023-01-10T17:13:48.871Z,9.32
2023-01-10T17:16:19.329Z,9.29
2023-01-10T17:18:46.710Z,9.23
2023-01-10T17:21:18.407Z,9.16
2023-01-10T17:23:45.914Z,9.12
2023-01-10T17:26:15.255Z,9.06
2023-01-10T17:28:41.980Z,9.04
2023-01-10T17:31:09.658Z,9.00
2023-01-10T17:33:36.611Z,8.98
2023-01-10T17:36:03.710Z,8.96
2023-01-10T17:38:31.820Z,8.97
2023-01-10T17:41:02.824Z,8.95
2023-01-10T17:43:30.587Z,8.92
2023-01-10T17:46:00.716Z,8.91
2023-01-10T17:48:27.490Z,8.86
2023-01-10T17:50:59.593Z,8.82
2023-01-10T17:53:26.549Z,8.76
2023-01-10T17:55:54.037Z,8.73
2023-01-10T17:58:21.712Z,8.69
2023-01-10T18:00:49.102Z,8.65
2023-01-10T18:03:17.029Z,8.64
2023-01-10T18:05:55.002Z,8.61
2023-01-10T18:08:22.611Z,8.58
2023-01-10T18:10:49.985Z,8.54
2023-01-10T18:13:18.506Z,8.53
2023-01-10T18:15:48.106Z,8.51
2023-01-10T18:18:16.625Z,8.49
2023-01-10T18:20:44.655Z,8.45
2023-01-10T18:23:21.199Z,8.42
2023-01-10T18:25:56.541Z,8.39
2023-01-10T18:28:39.604Z,8.39
2023-01-10T18:31:12.760Z,8.36
2023-01-10T18:33:40.221Z,8.35
2023-01-10T18:36:08.823Z,8.36
2023-01-10T18:38:36.595Z,8.39
2023-01-10T18:41:03.958Z,8.38
2023-01-10T18:43:31.354Z,8.40
2023-01-10T18:46:11.746Z,8.38
2023-01-10T18:48:38.880Z,8.38
2023-01-10T18:51:06.368Z,8.35
2023-01-10T18:53:33.327Z,8.33
2023-01-10T18:56:02.534Z,8.30
2023-01-10T18:58:34.432Z,8.26
2023-01-10T19:01:13.650Z,8.25
2023-01-10T19:03:40.887Z,8.23
2023-01-10T19:06:11.350Z,8.20
2023-01-10T19:08:42.640Z,8.17
2023-01-10T19:11:14.543Z,8.16
2023-01-10T19:13:42.509Z,8.12
2023-01-10T19:16:21.809Z,8.10
2023-01-10T19:18:50.323Z,8.09
2023-01-10T19:21:19.438Z,8.09
2023-01-10T19:23:48.925Z,8.13
2023-01-10T19:26:16.329Z,8.15
2023-01-10T19:28:44.158Z,8.17
2023-01-10T19:31:15.757Z,8.18
2023-01-10T19:33:44.053Z,8.17
2023-01-10T19:36:11.353Z,8.19
2023-01-10T19:38:38.015Z,8.20
2023-01-10T19:41:05.089Z,8.18
2023-01-10T19:43:32.212Z,8.15
2023-01-10T19:45:59.003Z,8.12
2023-01-10T19:48:25.872Z,8.12
2023-01-10T19:50:52.602Z,8.12
2023-01-10T19:53:23.851Z,8.11
2023-01-10T19:56:01.923Z,8.10
2023-01-10T19:58:28.716Z,8.13
2023-01-10T20:00:55.427Z,8.15
2023-01-10T20:03:22.074Z,8.16
2023-01-10T20:05:48.687Z,8.17
2023-01-10T20:08:15.459Z,8.18
2023-01-10T20:10:42.141Z,8.19
2023-01-10T20:13:10.331Z,8.16
2023-01-10T20:15:37.189Z,8.15
2023-01-10T20:18:04.033Z,8.13
2023-01-10T20:20:31.182Z,8.11
2023-01-10T20:22:57.852Z,8.15
2023-01-10T20:25:24.476Z,8.17
2023-01-10T20:27:51.207Z,8.18
2023-01-10T20:30:18.747Z,8.16
2023-01-10T20:32:46.516Z,8.15
2023-01-10T20:35:14.060Z,8.15
2023-01-10T20:37:40.739Z,8.14
2023-01-10T20:40:09.800Z,8.11
2023-01-10T20:42:36.563Z,8.06
2023-01-10T20:45:04.266Z,7.98
2023-01-10T20:47:32.276Z,7.91
2023-01-10T20:49:59.043Z,7.85
2023-01-10T20:52:27.265Z,7.78
2023-01-10T20:54:53.954Z,7.70
2023-01-10T20:57:20.637Z,7.64
2023-01-10T20:59:47.373Z,7.62
2023-01-10T21:02:14.155Z,7.58
2023-01-10T21:04:40.964Z,7.53
2023-01-10T21:07:07.845Z,7.49
2023-01-10T21:09:34.549Z,7.45
2023-01-10T21:12:13.845Z,7.43
2023-01-10T21:14:49.428Z,7.39
2023-01-10T21:17:16.218Z,7.34
2023-01-10T21:19:43.452Z,7.29
2023-01-10T21:22:11.608Z,7.27
2023-01-10T21:24:38.656Z,7.25
2023-01-10T21:27:05.484Z,7.20
2023-01-10T21:29:32.119Z,7.20
2023-01-10T21:31:58.777Z,7.16
2023-01-10T21:34:25.998Z,7.13
2023-01-10T21:36:52.686Z,7.12
2023-01-10T21:39:19.935Z,7.11
2023-01-10T21:42:05.121Z,7.07
2023-01-10T21:44:33.538Z,7.05
2023-01-10T21:47:00.247Z,7.03
2023-01-10T21:49:26.964Z,6.99
2023-01-10T21:51:53.725Z,6.97
2023-01-10T21:54:21.683Z,6.96
2023-01-10T21:56:48.332Z,6.93
2023-01-10T21:59:15.120Z,6.90
2023-01-10T22:01:41.846Z,6.88
2023-01-10T22:04:08.742Z,6.86
2023-01-10T22:06:35.589Z,6.86
2023-01-10T22:09:02.256Z,6.82
2023-01-10T22:11:29.919Z,6.80
2023-01-10T22:13:58.767Z,6.76
2023-01-10T22:16:25.520Z,6.73
2023-01-10T22:18:52.415Z,6.71
2023-01-10T22:21:21.476Z,6.68
2023-01-10T22:23:48.580Z,6.67
2023-01-10T22:26:16.307Z,6.65
2023-01-10T22:28:43.049Z,6.62
2023-01-10T22:31:09.826Z,6.60
2023-01-10T22:33:37.723Z,6.58
2023-01-10T22:36:18.028Z,6.57
2023-01-10T22:38:48.563Z,6.55
2023-01-10T22:41:17.789Z,6.53
2023-01-10T22:43:45.566Z,6.51
2023-01-10T22:46:16.176Z,6.49
2023-01-10T22:48:43.780Z,6.47
2023-01-10T22:51:10.421Z,6.46
2023-01-10T22:53:37.128Z,6.45
2023-01-10T22:56:06.778Z,6.44
2023-01-10T22:58:33.634Z,6.44
2023-01-10T23:01:06.878Z,6.44
2023-01-10T23:03:34.050Z,6.45
2023-01-10T23:06:01.206Z,6.44
2023-01-10T23:08:28.194Z,6.41
2023-01-10T23:10:54.988Z,6.38
2023-01-10T23:13:22.582Z,6.37
2023-01-10T23:15:57.444Z,6.38
2023-01-10T23:18:25.661Z,6.39
2023-01-10T23:20:52.789Z,6.38
2023-01-10T23:23:19.521Z,6.37
2023-01-10T23:25:46.399Z,6.38
2023-01-10T23:28:13.068Z,6.37
2023-01-10T23:30:40.972Z,6.34
2023-01-10T23:33:07.647Z,6.35
2023-01-10T23:35:34.284Z,6.33
2023-01-10T23:38:00.996Z,6.31
2023-01-10T23:40:27.764Z,6.29
2023-01-10T23:42:54.429Z,6.28
2023-01-10T23:45:21.510Z,6.28
2023-01-10T23:47:48.270Z,6.26
2023-01-10T23:50:15.233Z,6.24
2023-01-10T23:52:41.947Z,6.23
2023-01-10T23:55:08.987Z,6.22
2023-01-10T23:57:35.778Z,6.23
